Slatedale, Pennsylvania
Current Conditions -  °F | °C
As of 9:51 PM on Saturday 20 Dec 2014 (Local Time) from KABE Reporting Station
Overcast Overcast  
Wind Chill: 27°   Ceiling: 3000
Heat Index: 32°   Visibility: 10mi
Dew Point: 20°   Wind: 5mph
Humidity: 61%   Direction: 80°E
Pressure: 30.28"   Gusts: NA
Location:  40.74°N, 75.66°W
Report Text: KABE 210251Z 08004KT 10SM OVC030 00/M07 A3028 RMK AO2 SLP258 T00001067 51001
Loading
Personal Weather Stations






























Interactive Weather Map New forecast layout! Learn more

10-Day Weather Forecast

Advertisements
Track Severe Weather on mobile